createdAt,value
2017-09-21T00:00:59.731Z,11.77
2017-09-21T00:02:14.019Z,11.74
2017-09-21T00:03:27.748Z,11.71
2017-09-21T00:04:41.557Z,11.67
2017-09-21T00:05:56.456Z,11.65
2017-09-21T00:07:10.968Z,11.65
2017-09-21T00:08:24.832Z,11.64
2017-09-21T00:09:38.736Z,11.65
2017-09-21T00:10:53.009Z,11.65
2017-09-21T00:12:07.145Z,11.65
2017-09-21T00:13:21.121Z,11.66
2017-09-21T00:14:35.412Z,11.65
2017-09-21T00:15:49.120Z,11.66
2017-09-21T00:17:03.374Z,11.65
2017-09-21T00:18:17.808Z,11.65
2017-09-21T00:19:31.981Z,11.64
2017-09-21T00:20:47.313Z,11.64
2017-09-21T00:22:01.149Z,11.62
2017-09-21T00:23:15.098Z,11.61
2017-09-21T00:24:28.703Z,11.59
2017-09-21T00:25:42.945Z,11.57
2017-09-21T00:26:56.556Z,11.55
2017-09-21T00:28:10.805Z,11.55
2017-09-21T00:29:24.651Z,11.55
2017-09-21T00:30:39.868Z,11.55
2017-09-21T00:31:53.598Z,11.54
2017-09-21T00:33:07.476Z,11.53
2017-09-21T00:34:21.614Z,11.53
2017-09-21T00:35:35.614Z,11.51
2017-09-21T00:36:49.398Z,11.49
2017-09-21T00:38:03.326Z,11.49
2017-09-21T00:39:17.653Z,11.47
2017-09-21T00:40:31.836Z,11.48
2017-09-21T00:41:46.361Z,11.48
2017-09-21T00:43:00.211Z,11.47
2017-09-21T00:44:14.337Z,11.49
2017-09-21T00:45:28.258Z,11.49
2017-09-21T00:46:43.062Z,11.49
2017-09-21T00:47:57.155Z,11.48
2017-09-21T00:49:11.022Z,11.48
2017-09-21T00:50:25.058Z,11.49
2017-09-21T00:51:53.858Z,11.48
2017-09-21T00:53:07.351Z,11.48
2017-09-21T00:54:21.203Z,11.47
2017-09-21T00:55:34.826Z,11.45
2017-09-21T00:56:49.839Z,11.43
2017-09-21T00:58:03.599Z,11.43
2017-09-21T00:59:17.722Z,11.42
2017-09-21T01:00:32.243Z,11.42
2017-09-21T01:01:45.732Z,11.43
2017-09-21T01:02:59.537Z,11.43
2017-09-21T01:04:13.705Z,11.43
2017-09-21T01:05:27.607Z,11.43
2017-09-21T01:06:41.755Z,11.43
2017-09-21T01:07:55.287Z,11.42
2017-09-21T01:09:09.172Z,11.42
2017-09-21T01:10:23.077Z,11.41
2017-09-21T01:11:37.230Z,11.4
2017-09-21T01:12:51.533Z,11.39
2017-09-21T01:14:05.752Z,11.38
2017-09-21T01:15:19.544Z,11.38
2017-09-21T01:16:33.041Z,11.36
2017-09-21T01:17:46.901Z,11.37
2017-09-21T01:19:01.003Z,11.35
2017-09-21T01:20:14.669Z,11.33
2017-09-21T01:21:28.749Z,11.3
2017-09-21T01:22:42.456Z,11.27
2017-09-21T01:23:57.005Z,11.25
2017-09-21T01:25:11.910Z,11.23
2017-09-21T01:26:26.586Z,11.2
2017-09-21T01:27:40.288Z,11.19
2017-09-21T01:28:54.358Z,11.17
2017-09-21T01:30:08.120Z,11.17
2017-09-21T01:31:42.226Z,11.18
2017-09-21T01:33:10.950Z,11.16
2017-09-21T01:34:24.624Z,11.13
2017-09-21T01:35:38.280Z,11.12
2017-09-21T01:36:52.110Z,11.11
2017-09-21T01:38:05.654Z,11.08
2017-09-21T01:39:19.223Z,11.05
2017-09-21T01:40:32.836Z,11.02
2017-09-21T01:41:46.528Z,10.99
2017-09-21T01:43:00.730Z,10.96
2017-09-21T01:44:29.458Z,10.94
2017-09-21T01:45:43.029Z,10.92
2017-09-21T01:46:57.240Z,10.9
2017-09-21T01:48:11.130Z,10.88
2017-09-21T01:49:25.421Z,10.88
2017-09-21T01:50:42.578Z,10.87
2017-09-21T01:51:56.240Z,10.84
2017-09-21T01:53:11.060Z,10.82
2017-09-21T01:54:25.085Z,10.79
2017-09-21T01:55:38.627Z,10.76
2017-09-21T01:56:52.452Z,10.74
2017-09-21T01:58:06.321Z,10.69
2017-09-21T01:59:19.925Z,10.68
2017-09-21T02:00:33.814Z,10.65
2017-09-21T02:01:47.567Z,10.62
2017-09-21T02:03:02.639Z,10.59
2017-09-21T02:04:16.179Z,10.58
2017-09-21T02:05:29.870Z,10.56
2017-09-21T02:06:43.807Z,10.55
2017-09-21T02:07:58.182Z,10.54
2017-09-21T02:09:11.670Z,10.53
2017-09-21T02:10:25.256Z,10.52
2017-09-21T02:11:38.806Z,10.51
2017-09-21T02:12:52.887Z,10.5
2017-09-21T02:14:06.426Z,10.48
2017-09-21T02:15:20.157Z,10.46
2017-09-21T02:16:33.835Z,10.44
2017-09-21T02:17:47.396Z,10.42
2017-09-21T02:19:02.621Z,10.41
2017-09-21T02:20:16.139Z,10.4
2017-09-21T02:21:29.944Z,10.39
2017-09-21T02:22:43.485Z,10.37
2017-09-21T02:23:56.987Z,10.36
2017-09-21T02:25:11.005Z,10.36
2017-09-21T02:26:25.260Z,10.36
2017-09-21T02:27:39.311Z,10.36
2017-09-21T02:29:05.614Z,10.38
2017-09-21T02:30:19.520Z,10.38
2017-09-21T02:31:33.014Z,10.37
2017-09-21T02:32:46.623Z,10.36
2017-09-21T02:34:00.159Z,10.33
2017-09-21T02:35:13.704Z,10.3
2017-09-21T02:36:27.543Z,10.3
2017-09-21T02:37:41.098Z,10.31
2017-09-21T02:38:54.744Z,10.31
2017-09-21T02:40:08.337Z,10.3
2017-09-21T02:41:22.272Z,10.29
2017-09-21T02:42:36.104Z,10.28
2017-09-21T02:43:50.069Z,10.28
2017-09-21T02:45:03.570Z,10.28
2017-09-21T02:46:17.578Z,10.29
2017-09-21T02:47:31.070Z,10.28
2017-09-21T02:48:44.865Z,10.3
2017-09-21T02:49:58.722Z,10.3
2017-09-21T02:51:12.235Z,10.32
2017-09-21T02:52:25.859Z,10.33
2017-09-21T02:53:39.339Z,10.35
2017-09-21T02:54:53.532Z,10.37
2017-09-21T02:56:14.099Z,10.36
2017-09-21T02:57:27.592Z,10.35
2017-09-21T02:58:41.150Z,10.33
2017-09-21T02:59:54.697Z,10.31
2017-09-21T03:01:08.945Z,10.28
2017-09-21T03:02:23.146Z,10.26
2017-09-21T03:03:36.625Z,10.22
2017-09-21T03:04:50.247Z,10.19
2017-09-21T03:06:03.774Z,10.17
2017-09-21T03:07:17.572Z,10.14
2017-09-21T03:08:31.065Z,10.13
2017-09-21T03:09:45.381Z,10.09
2017-09-21T03:10:58.968Z,10.07
2017-09-21T03:12:12.595Z,10.05
2017-09-21T03:13:26.437Z,10.04
2017-09-21T03:14:40.347Z,10.01
2017-09-21T03:15:53.929Z,10
2017-09-21T03:17:08.266Z,9.97
2017-09-21T03:18:22.219Z,9.98
2017-09-21T03:19:36.184Z,9.95
2017-09-21T03:20:49.940Z,9.93
2017-09-21T03:22:03.463Z,9.93
2017-09-21T03:23:17.195Z,9.92
2017-09-21T03:24:31.583Z,9.92
2017-09-21T03:25:45.777Z,9.92
2017-09-21T03:26:59.338Z,9.91
2017-09-21T03:28:12.922Z,9.91
2017-09-21T03:29:26.426Z,9.91
2017-09-21T03:30:40.039Z,9.9
2017-09-21T03:31:53.868Z,9.92
2017-09-21T03:33:07.992Z,9.92
2017-09-21T03:34:21.508Z,9.9
2017-09-21T03:35:35.059Z,9.88
2017-09-21T03:36:48.559Z,9.87
2017-09-21T03:38:02.602Z,9.84
2017-09-21T03:39:16.111Z,9.82
2017-09-21T03:40:29.624Z,9.8
2017-09-21T03:41:43.202Z,9.79
2017-09-21T03:42:56.825Z,9.78
2017-09-21T03:44:10.749Z,9.78
2017-09-21T03:45:24.783Z,9.77
2017-09-21T03:46:38.649Z,9.76
2017-09-21T03:47:52.224Z,9.76
2017-09-21T03:49:05.869Z,9.76
2017-09-21T03:50:19.778Z,9.75
2017-09-21T03:51:33.301Z,9.75
2017-09-21T03:52:47.240Z,9.74
2017-09-21T03:54:01.040Z,9.71
2017-09-21T03:55:14.778Z,9.69
2017-09-21T03:56:29.791Z,9.7
2017-09-21T03:57:43.302Z,9.72
2017-09-21T03:58:57.074Z,9.75
2017-09-21T04:00:11.543Z,9.78
2017-09-21T04:01:25.182Z,9.83
2017-09-21T04:02:39.269Z,9.86
2017-09-21T04:03:53.127Z,9.89
2017-09-21T04:05:06.991Z,9.9
2017-09-21T04:06:20.874Z,9.9
2017-09-21T04:07:34.426Z,9.91
2017-09-21T04:08:48.639Z,9.9
2017-09-21T04:10:02.253Z,9.89
2017-09-21T04:11:15.909Z,9.88
2017-09-21T04:12:29.678Z,9.88
2017-09-21T04:13:43.736Z,9.9
2017-09-21T04:14:57.598Z,9.89
2017-09-21T04:16:11.246Z,9.92
2017-09-21T04:17:25.165Z,9.94
2017-09-21T04:18:39.683Z,9.97
2017-09-21T04:19:53.266Z,9.99
2017-09-21T04:21:07.188Z,10.01
2017-09-21T04:22:21.285Z,10.02
2017-09-21T04:23:35.054Z,10.04
2017-09-21T04:24:48.908Z,10.07
2017-09-21T04:26:02.588Z,10.09
2017-09-21T04:27:16.523Z,10.1
2017-09-21T04:28:30.531Z,10.11
2017-09-21T04:29:44.126Z,10.12
2017-09-21T04:30:57.891Z,10.12
2017-09-21T04:32:11.646Z,10.13
2017-09-21T04:33:26.633Z,10.13
2017-09-21T04:34:40.291Z,10.16
2017-09-21T04:35:54.180Z,10.19
2017-09-21T04:37:08.118Z,10.21
2017-09-21T04:38:21.749Z,10.22
2017-09-21T04:39:35.640Z,10.26
2017-09-21T04:40:49.343Z,10.3
2017-09-21T04:42:03.075Z,10.36
2017-09-21T04:43:17.223Z,10.4
2017-09-21T04:44:31.028Z,10.44
2017-09-21T04:45:45.812Z,10.48
2017-09-21T04:46:59.486Z,10.52
2017-09-21T04:48:13.246Z,10.54
2017-09-21T04:49:27.113Z,10.59
2017-09-21T04:50:40.629Z,10.64
2017-09-21T04:51:54.690Z,10.7
2017-09-21T04:53:08.670Z,10.76
2017-09-21T04:54:22.232Z,10.8
2017-09-21T04:55:35.874Z,10.84
2017-09-21T04:56:49.903Z,10.85
2017-09-21T04:58:04.090Z,10.88
2017-09-21T04:59:17.949Z,10.91
2017-09-21T05:00:31.559Z,10.93
2017-09-21T05:01:45.510Z,10.96
2017-09-21T05:02:59.635Z,11.01
2017-09-21T05:04:13.697Z,11.04
2017-09-21T05:05:27.738Z,11.07
2017-09-21T05:06:42.001Z,11.08
2017-09-21T05:07:55.534Z,11.11
2017-09-21T05:09:09.314Z,11.15
2017-09-21T05:10:23.474Z,11.16
2017-09-21T05:11:37.048Z,11.16
2017-09-21T05:12:50.688Z,11.15
2017-09-21T05:14:04.319Z,11.16
2017-09-21T05:15:17.899Z,11.17
2017-09-21T05:16:31.793Z,11.17
2017-09-21T05:17:45.323Z,11.17
2017-09-21T05:18:58.881Z,11.16
2017-09-21T05:20:12.817Z,11.15
2017-09-21T05:21:26.707Z,11.14
2017-09-21T05:22:40.712Z,11.13
2017-09-21T05:23:54.378Z,11.12
2017-09-21T05:25:08.167Z,11.12
2017-09-21T05:26:22.095Z,11.13
2017-09-21T05:27:35.727Z,11.16
2017-09-21T05:28:50.010Z,11.18
2017-09-21T05:30:03.886Z,11.24
2017-09-21T05:31:17.985Z,11.23
2017-09-21T05:32:31.732Z,11.27
2017-09-21T05:33:45.517Z,11.28
2017-09-21T05:35:00.771Z,11.31
2017-09-21T05:36:14.307Z,11.33
2017-09-21T05:37:28.191Z,11.35
2017-09-21T05:38:41.693Z,11.37
2017-09-21T05:39:55.202Z,11.38
2017-09-21T05:41:09.093Z,11.37
2017-09-21T05:42:22.887Z,11.41
2017-09-21T05:43:36.950Z,11.41
2017-09-21T05:44:51.158Z,11.43
2017-09-21T05:46:04.885Z,11.45
2017-09-21T05:47:19.370Z,11.48
2017-09-21T05:48:33.055Z,11.48
2017-09-21T05:49:46.753Z,11.51
2017-09-21T05:51:00.583Z,11.52
2017-09-21T05:52:14.798Z,11.56
2017-09-21T05:53:28.731Z,11.59
2017-09-21T05:54:42.687Z,11.61
2017-09-21T05:55:56.479Z,11.65
2017-09-21T05:57:10.323Z,11.71
2017-09-21T05:58:24.202Z,11.75
2017-09-21T05:59:38.341Z,11.78
2017-09-21T06:00:51.853Z,11.82
2017-09-21T06:02:05.674Z,11.84
2017-09-21T06:03:19.381Z,11.87
2017-09-21T06:04:33.642Z,11.92
2017-09-21T06:05:47.476Z,11.97
2017-09-21T06:07:01.047Z,12.01
2017-09-21T06:08:14.559Z,12.06
2017-09-21T06:09:28.385Z,12.11
2017-09-21T06:10:42.201Z,12.16
2017-09-21T06:11:56.143Z,12.2
2017-09-21T06:13:10.492Z,12.25
2017-09-21T06:14:24.225Z,12.3
2017-09-21T06:15:38.497Z,12.34
2017-09-21T06:16:52.307Z,12.38
2017-09-21T06:18:06.195Z,12.41
2017-09-21T06:19:19.941Z,12.43
2017-09-21T06:20:35.272Z,12.45
2017-09-21T06:21:49.108Z,12.47
2017-09-21T06:23:02.711Z,12.51
2017-09-21T06:24:16.672Z,12.5
2017-09-21T06:25:30.489Z,12.5
2017-09-21T06:26:43.969Z,12.5
2017-09-21T06:27:57.823Z,12.51
2017-09-21T06:29:11.585Z,12.54
2017-09-21T06:30:26.312Z,12.56
2017-09-21T06:31:40.164Z,12.58
2017-09-21T06:32:54.128Z,12.62
2017-09-21T06:34:08.353Z,12.62
2017-09-21T06:35:21.898Z,12.63
2017-09-21T06:36:35.836Z,12.64
2017-09-21T06:37:49.338Z,12.67
2017-09-21T06:39:02.868Z,12.69
2017-09-21T06:40:17.391Z,12.71
2017-09-21T06:41:30.882Z,12.74
2017-09-21T06:42:57.491Z,12.77
2017-09-21T06:44:11.146Z,12.81
2017-09-21T06:45:24.799Z,12.83
2017-09-21T06:46:38.618Z,12.84
2017-09-21T06:47:52.432Z,12.86
2017-09-21T06:49:06.063Z,12.88
2017-09-21T06:50:19.610Z,12.91
2017-09-21T06:51:33.494Z,12.93
2017-09-21T06:52:47.761Z,12.97
2017-09-21T06:54:01.561Z,12.99
2017-09-21T06:55:15.947Z,13.02
2017-09-21T06:56:29.456Z,13.05
2017-09-21T06:57:43.978Z,13.09
2017-09-21T06:58:57.545Z,13.1
2017-09-21T07:00:11.116Z,13.11
2017-09-21T07:01:25.121Z,13.13
2017-09-21T07:02:39.261Z,13.16
2017-09-21T07:03:53.523Z,13.17
2017-09-21T07:05:07.283Z,13.19
2017-09-21T07:06:21.195Z,13.22
2017-09-21T07:07:34.858Z,13.24
2017-09-21T07:08:48.344Z,13.23
2017-09-21T07:10:01.865Z,13.24
2017-09-21T07:11:15.552Z,13.27
2017-09-21T07:12:31.087Z,13.28
2017-09-21T07:13:44.602Z,13.3
2017-09-21T07:14:58.229Z,13.32
2017-09-21T07:16:12.042Z,13.33
2017-09-21T07:17:25.779Z,13.37
2017-09-21T07:18:39.661Z,13.39
2017-09-21T07:19:53.166Z,13.42
2017-09-21T07:21:06.716Z,13.45
2017-09-21T07:22:20.382Z,13.49
2017-09-21T07:23:34.073Z,13.52
2017-09-21T07:24:47.961Z,13.57
2017-09-21T07:26:01.504Z,13.59
2017-09-21T07:27:15.099Z,13.61
2017-09-21T07:28:28.624Z,13.6
2017-09-21T07:29:42.125Z,13.6
2017-09-21T07:30:56.132Z,13.59
2017-09-21T07:32:09.991Z,13.58
2017-09-21T07:33:24.155Z,13.59
2017-09-21T07:34:37.779Z,13.59
2017-09-21T07:35:51.898Z,13.59
2017-09-21T07:37:06.151Z,13.55
2017-09-21T07:38:20.788Z,13.53
2017-09-21T07:39:34.452Z,13.54
2017-09-21T07:40:48.057Z,13.56
2017-09-21T07:42:02.138Z,13.58
2017-09-21T07:43:16.418Z,13.61
2017-09-21T07:44:29.956Z,13.63
2017-09-21T07:45:43.632Z,13.66
2017-09-21T07:46:57.487Z,13.7
2017-09-21T07:48:11.406Z,13.75
2017-09-21T07:49:25.402Z,13.8
2017-09-21T07:50:39.293Z,13.83
2017-09-21T07:51:52.844Z,13.88
2017-09-21T07:53:06.810Z,13.93
2017-09-21T07:54:20.373Z,13.97
2017-09-21T07:55:34.389Z,14.03
2017-09-21T07:56:47.927Z,14.07
2017-09-21T07:58:01.485Z,14.12
2017-09-21T07:59:15.220Z,14.16
2017-09-21T08:00:29.356Z,14.2
2017-09-21T08:01:43.482Z,14.23
2017-09-21T08:02:57.287Z,14.27
2017-09-21T08:04:11.004Z,14.3
2017-09-21T08:05:24.942Z,14.35
2017-09-21T08:06:38.579Z,14.39
2017-09-21T08:07:52.638Z,14.44
2017-09-21T08:09:06.530Z,14.48
2017-09-21T08:10:20.039Z,14.5
2017-09-21T08:11:33.554Z,14.55
2017-09-21T08:12:47.874Z,14.57
2017-09-21T08:14:01.995Z,14.59
2017-09-21T08:15:16.040Z,14.59
2017-09-21T08:16:29.597Z,14.62
2017-09-21T08:17:43.086Z,14.65
2017-09-21T08:18:57.206Z,14.66
2017-09-21T08:20:11.005Z,14.67
2017-09-21T08:21:24.527Z,14.71
2017-09-21T08:22:38.069Z,14.73
2017-09-21T08:23:51.663Z,14.76
2017-09-21T08:25:06.099Z,14.79
2017-09-21T08:26:20.294Z,14.8
2017-09-21T08:27:33.798Z,14.82
2017-09-21T08:28:47.943Z,14.84
2017-09-21T08:30:01.490Z,14.88
2017-09-21T08:31:15.805Z,14.93
2017-09-21T08:32:30.189Z,14.94
2017-09-21T08:33:43.732Z,14.95
2017-09-21T08:34:57.239Z,14.93
2017-09-21T08:36:10.905Z,14.92
2017-09-21T08:37:24.820Z,14.95
2017-09-21T08:38:38.635Z,14.97
2017-09-21T08:39:52.431Z,14.99
2017-09-21T08:41:06.291Z,15
2017-09-21T08:42:20.950Z,15.03
2017-09-21T08:43:34.490Z,15.05
2017-09-21T08:44:48.468Z,15.09
2017-09-21T08:46:01.964Z,15.12
2017-09-21T08:47:16.097Z,15.15
2017-09-21T08:48:30.241Z,15.19
2017-09-21T08:49:43.906Z,15.21
2017-09-21T08:50:57.755Z,15.26
2017-09-21T08:52:11.334Z,15.31
2017-09-21T08:53:24.928Z,15.37
2017-09-21T08:54:38.828Z,15.45
2017-09-21T08:55:52.865Z,15.49
2017-09-21T08:57:07.266Z,15.54
2017-09-21T08:58:21.403Z,15.59
2017-09-21T08:59:34.991Z,15.63
2017-09-21T09:00:48.586Z,15.67
2017-09-21T09:02:02.083Z,15.68
2017-09-21T09:03:15.892Z,15.68
2017-09-21T09:04:29.591Z,15.72
2017-09-21T09:05:43.089Z,15.75
2017-09-21T09:06:56.603Z,15.81
2017-09-21T09:08:10.119Z,15.86
2017-09-21T09:09:23.909Z,15.96
2017-09-21T09:10:38.305Z,16.05
2017-09-21T09:11:52.012Z,16.13
2017-09-21T09:13:05.896Z,16.18
2017-09-21T09:14:19.396Z,16.23
2017-09-21T09:15:39.514Z,16.28
2017-09-21T09:16:53.155Z,16.38
2017-09-21T09:18:07.026Z,16.47
2017-09-21T09:19:20.502Z,16.54
2017-09-21T09:20:34.109Z,16.58
2017-09-21T09:21:48.584Z,16.62
2017-09-21T09:23:02.200Z,16.66
2017-09-21T09:24:16.568Z,16.74
2017-09-21T09:25:30.440Z,16.81
2017-09-21T09:26:43.951Z,16.87
2017-09-21T09:27:58.048Z,16.91
2017-09-21T09:29:11.690Z,16.91
2017-09-21T09:30:25.175Z,16.9
2017-09-21T09:31:39.218Z,16.88
2017-09-21T09:32:52.704Z,16.8
2017-09-21T09:34:06.488Z,16.76
2017-09-21T09:35:19.974Z,16.68
2017-09-21T09:36:33.469Z,16.6
2017-09-21T09:37:47.343Z,16.53
2017-09-21T09:39:01.172Z,16.44
2017-09-21T09:40:15.354Z,16.34
2017-09-21T09:41:28.960Z,16.34
2017-09-21T09:42:42.470Z,16.35
2017-09-21T09:43:56.098Z,16.37
2017-09-21T09:45:10.171Z,16.37
2017-09-21T09:46:24.390Z,16.4
2017-09-21T09:47:38.507Z,16.4
2017-09-21T09:48:52.054Z,16.45
2017-09-21T09:50:06.361Z,16.47
2017-09-21T09:51:20.367Z,16.48
2017-09-21T09:52:34.712Z,16.48
2017-09-21T09:53:48.498Z,16.48
2017-09-21T09:55:02.834Z,16.45
2017-09-21T09:56:16.653Z,16.39
2017-09-21T09:57:30.513Z,16.36
2017-09-21T09:58:45.535Z,16.31
2017-09-21T10:00:03.612Z,16.26
2017-09-21T10:01:20.707Z,16.27
2017-09-21T10:02:36.715Z,16.24
2017-09-21T10:03:55.678Z,16.22
2017-09-21T10:05:11.639Z,16.19
2017-09-21T10:06:28.651Z,16.15
2017-09-21T10:07:44.468Z,16.13
2017-09-21T10:08:59.610Z,16.06
2017-09-21T10:10:16.126Z,16.02
2017-09-21T10:11:31.892Z,16
2017-09-21T10:12:48.334Z,16
2017-09-21T10:14:04.884Z,16.02
2017-09-21T10:15:21.279Z,16.06
2017-09-21T10:16:38.467Z,16.12
2017-09-21T10:17:56.954Z,16.17
2017-09-21T10:19:15.427Z,16.23
2017-09-21T10:20:34.064Z,16.28
2017-09-21T10:21:49.216Z,16.32
2017-09-21T10:23:04.442Z,16.33
2017-09-21T10:24:20.641Z,16.34
2017-09-21T10:25:36.308Z,16.36
2017-09-21T10:26:51.712Z,16.39
2017-09-21T10:28:12.016Z,16.43
2017-09-21T10:29:28.940Z,16.46
2017-09-21T10:30:45.295Z,16.44
2017-09-21T10:32:03.104Z,16.45
2017-09-21T10:33:19.821Z,16.44
2017-09-21T10:34:35.747Z,16.45
2017-09-21T10:35:50.856Z,16.44
2017-09-21T10:37:07.871Z,16.43
2017-09-21T10:38:22.684Z,16.45
2017-09-21T10:39:38.859Z,16.48
2017-09-21T10:40:54.331Z,16.52
2017-09-21T10:42:10.883Z,16.56
2017-09-21T10:43:30.176Z,16.6
2017-09-21T10:44:46.630Z,16.65
2017-09-21T10:46:04.390Z,16.71
2017-09-21T10:47:21.857Z,16.75
2017-09-21T10:48:38.811Z,16.82
2017-09-21T10:49:53.903Z,16.87
2017-09-21T10:51:09.320Z,16.95
2017-09-21T10:52:25.829Z,17.02
2017-09-21T10:53:42.353Z,17.05
2017-09-21T10:54:57.308Z,17.07
2017-09-21T10:56:12.851Z,17.07
2017-09-21T10:57:29.340Z,17.07
2017-09-21T10:58:46.338Z,17.06
2017-09-21T11:00:04.413Z,17.07
2017-09-21T11:01:20.550Z,17.07
2017-09-21T11:02:37.096Z,17.1
2017-09-21T11:03:53.213Z,17.11
2017-09-21T11:05:08.328Z,17.14
2017-09-21T11:06:24.627Z,17.18
2017-09-21T11:07:39.754Z,17.22
2017-09-21T11:08:55.130Z,17.27
2017-09-21T11:10:11.392Z,17.3
2017-09-21T11:11:28.692Z,17.32
2017-09-21T11:12:46.571Z,17.31
2017-09-21T11:14:03.831Z,17.35
2017-09-21T11:15:39.955Z,17.38
2017-09-21T11:16:57.192Z,17.39
2017-09-21T11:18:13.422Z,17.39
2017-09-21T11:19:29.130Z,17.38
2017-09-21T11:20:44.262Z,17.42
2017-09-21T11:22:01.090Z,17.43
2017-09-21T11:23:16.202Z,17.47
2017-09-21T11:24:33.143Z,17.5
2017-09-21T11:25:49.435Z,17.54
2017-09-21T11:27:07.232Z,17.57
2017-09-21T11:28:24.314Z,17.61
2017-09-21T11:29:41.068Z,17.61
2017-09-21T11:30:58.122Z,17.6
2017-09-21T11:32:13.718Z,17.59
2017-09-21T11:33:30.316Z,17.63
2017-09-21T11:34:46.699Z,17.69
2017-09-21T11:36:02.597Z,17.75
2017-09-21T11:37:17.805Z,17.79
2017-09-21T11:38:34.583Z,17.83
2017-09-21T11:39:52.389Z,17.87
2017-09-21T11:41:09.055Z,17.92
2017-09-21T11:42:26.296Z,17.94
2017-09-21T11:43:43.639Z,17.92
2017-09-21T11:45:00.025Z,17.92
2017-09-21T11:46:16.021Z,17.92
2017-09-21T11:47:32.332Z,17.93
2017-09-21T11:48:48.292Z,17.96
2017-09-21T11:50:03.639Z,18
2017-09-21T11:51:18.706Z,18.02
2017-09-21T11:52:35.802Z,18.06
2017-09-21T11:53:52.572Z,18.09
2017-09-21T11:55:09.076Z,18.13
2017-09-21T11:56:26.190Z,18.14
2017-09-21T11:57:41.992Z,18.16
2017-09-21T11:58:58.372Z,18.16
2017-09-21T12:00:14.962Z,18.17
2017-09-21T12:01:29.931Z,18.19
2017-09-21T12:02:45.088Z,18.22
2017-09-21T12:04:00.556Z,18.28
2017-09-21T12:05:16.783Z,18.32
2017-09-21T12:06:34.650Z,18.33
2017-09-21T12:07:51.914Z,18.36
2017-09-21T12:09:08.462Z,18.37
2017-09-21T12:10:44.844Z,18.39
2017-09-21T12:12:02.309Z,18.39
2017-09-21T12:13:19.326Z,18.4
2017-09-21T12:14:35.877Z,18.44
2017-09-21T12:16:04.660Z,18.47
2017-09-21T12:17:20.360Z,18.52
2017-09-21T12:18:36.118Z,18.56
2017-09-21T12:19:52.527Z,18.6
2017-09-21T12:21:09.523Z,18.64
2017-09-21T12:22:26.042Z,18.67
2017-09-21T12:23:42.360Z,18.69
2017-09-21T12:24:59.182Z,18.72
2017-09-21T12:26:15.741Z,18.75
2017-09-21T12:27:32.669Z,18.79
2017-09-21T12:28:48.840Z,18.82
2017-09-21T12:30:07.457Z,18.83
2017-09-21T12:31:24.029Z,18.86
2017-09-21T12:32:39.385Z,18.88
2017-09-21T12:33:55.382Z,18.89
2017-09-21T12:35:11.936Z,18.9
2017-09-21T12:36:29.242Z,18.91
2017-09-21T12:37:46.721Z,18.93
2017-09-21T12:39:04.582Z,18.93
2017-09-21T12:40:22.905Z,18.98
2017-09-21T12:41:40.251Z,18.99
2017-09-21T12:42:55.022Z,18.99
2017-09-21T12:44:12.030Z,19.01
2017-09-21T12:45:27.742Z,19.04
2017-09-21T12:46:43.529Z,19.06
2017-09-21T12:48:01.282Z,19.09
2017-09-21T12:49:18.009Z,19.14
2017-09-21T12:50:35.345Z,19.17
2017-09-21T12:51:53.786Z,19.2
2017-09-21T12:53:11.478Z,19.24
2017-09-21T12:54:29.354Z,19.29
2017-09-21T12:55:45.580Z,19.35
2017-09-21T12:57:01.084Z,19.39
2017-09-21T12:58:16.847Z,19.41
2017-09-21T12:59:32.978Z,19.44
2017-09-21T13:00:49.951Z,19.5
2017-09-21T13:02:06.236Z,19.53
2017-09-21T13:03:29.294Z,19.53
2017-09-21T13:04:52.936Z,19.52
2017-09-21T13:06:09.721Z,19.48
2017-09-21T13:07:26.421Z,19.45
2017-09-21T13:08:45.441Z,19.37
2017-09-21T13:10:02.457Z,19.32
2017-09-21T13:11:17.723Z,19.28
2017-09-21T13:12:32.789Z,19.27
2017-09-21T13:13:48.787Z,19.29
2017-09-21T13:15:04.215Z,19.32
2017-09-21T13:16:19.592Z,19.36
2017-09-21T13:17:36.028Z,19.39
2017-09-21T13:18:53.953Z,19.44
2017-09-21T13:20:10.178Z,19.47
2017-09-21T13:21:27.321Z,19.51
2017-09-21T13:22:45.187Z,19.55
2017-09-21T13:24:01.828Z,19.58
2017-09-21T13:25:18.332Z,19.62
2017-09-21T13:26:34.173Z,19.65
2017-09-21T13:27:48.934Z,19.65
2017-09-21T13:29:06.534Z,19.67
2017-09-21T13:30:22.985Z,19.68
2017-09-21T13:31:40.119Z,19.7
2017-09-21T13:32:56.879Z,19.72
2017-09-21T13:34:14.250Z,19.73
2017-09-21T13:35:32.306Z,19.74
2017-09-21T13:36:49.666Z,19.78
2017-09-21T13:38:06.307Z,19.82
2017-09-21T13:39:22.756Z,19.85
2017-09-21T13:40:37.507Z,19.89
2017-09-21T13:41:52.721Z,19.9
2017-09-21T13:43:08.402Z,19.93
2017-09-21T13:44:23.233Z,19.92
2017-09-21T13:45:45.783Z,19.93
2017-09-21T13:47:02.530Z,19.94
2017-09-21T13:48:19.192Z,19.93
2017-09-21T13:49:41.913Z,19.97
2017-09-21T13:50:59.803Z,20
2017-09-21T13:52:27.902Z,20
2017-09-21T13:53:46.065Z,20
2017-09-21T13:55:02.410Z,20.02
2017-09-21T13:56:18.350Z,20.01
2017-09-21T13:57:33.736Z,19.99
2017-09-21T13:58:48.268Z,19.96
2017-09-21T14:00:05.144Z,19.94
2017-09-21T14:01:21.871Z,19.94
2017-09-21T14:02:39.648Z,19.96
2017-09-21T14:03:56.843Z,19.99
2017-09-21T14:05:28.595Z,20.03
2017-09-21T14:06:45.819Z,20.08
2017-09-21T14:08:02.890Z,20.09
2017-09-21T14:09:20.159Z,20.15
2017-09-21T14:10:36.371Z,20.17
2017-09-21T14:11:51.148Z,20.19
2017-09-21T14:13:08.218Z,20.21
2017-09-21T14:14:27.662Z,20.23
2017-09-21T14:15:43.804Z,20.28
2017-09-21T14:17:00.745Z,20.31
2017-09-21T14:18:17.373Z,20.34
2017-09-21T14:19:34.120Z,20.34
2017-09-21T14:20:51.719Z,20.35
2017-09-21T14:22:07.941Z,20.35
2017-09-21T14:23:24.051Z,20.35
2017-09-21T14:24:39.476Z,20.36
2017-09-21T14:25:54.514Z,20.37
2017-09-21T14:27:09.519Z,20.38
2017-09-21T14:28:24.637Z,20.41
2017-09-21T14:29:43.645Z,20.45
2017-09-21T14:30:59.653Z,20.47
2017-09-21T14:32:16.413Z,20.49
2017-09-21T14:33:32.563Z,20.53
2017-09-21T14:34:49.283Z,20.55
2017-09-21T14:36:05.469Z,20.58
2017-09-21T14:37:21.658Z,20.6
2017-09-21T14:38:37.254Z,20.62
2017-09-21T14:39:54.128Z,20.64
2017-09-21T14:41:10.596Z,20.63
2017-09-21T14:42:27.413Z,20.64
2017-09-21T14:43:44.584Z,20.65
2017-09-21T14:45:02.890Z,20.64
2017-09-21T14:46:20.125Z,20.67
2017-09-21T14:47:37.055Z,20.69
2017-09-21T14:48:54.055Z,20.71
2017-09-21T14:50:11.595Z,20.72
2017-09-21T14:51:26.234Z,20.69
2017-09-21T14:52:41.798Z,20.68
2017-09-21T14:53:56.726Z,20.66
2017-09-21T14:55:13.303Z,20.66
2017-09-21T14:56:29.152Z,20.68
2017-09-21T14:57:46.194Z,20.7
2017-09-21T14:59:02.374Z,20.73
2017-09-21T15:00:21.147Z,20.73
2017-09-21T15:01:39.074Z,20.74
2017-09-21T15:02:58.242Z,20.76
2017-09-21T15:04:15.142Z,20.79
2017-09-21T15:05:31.252Z,20.8
2017-09-21T15:06:48.609Z,20.81
2017-09-21T15:08:05.802Z,20.82
2017-09-21T15:09:21.292Z,20.84
2017-09-21T15:10:36.678Z,20.88
2017-09-21T15:12:25.852Z,20.89
2017-09-21T15:13:43.768Z,20.88
2017-09-21T15:15:00.869Z,20.91
2017-09-21T15:16:17.237Z,20.91
2017-09-21T15:17:34.694Z,20.92
2017-09-21T15:18:50.616Z,20.93
2017-09-21T15:20:06.116Z,20.93
2017-09-21T15:21:23.250Z,20.94
2017-09-21T15:22:40.001Z,20.93
2017-09-21T15:23:56.151Z,20.91
2017-09-21T15:25:13.229Z,20.92
2017-09-21T15:26:30.579Z,20.94
2017-09-21T15:27:48.520Z,20.95
2017-09-21T15:29:05.914Z,20.95
2017-09-21T15:30:23.315Z,20.94
2017-09-21T15:31:40.125Z,20.91
2017-09-21T15:32:57.060Z,20.9
2017-09-21T15:34:12.065Z,20.87
2017-09-21T15:35:27.425Z,20.86
2017-09-21T15:36:49.359Z,20.85
2017-09-21T15:38:08.240Z,20.86
2017-09-21T15:39:23.279Z,20.85
2017-09-21T15:40:54.156Z,20.85
2017-09-21T15:42:12.423Z,20.88
2017-09-21T15:43:30.084Z,20.9
2017-09-21T15:44:47.726Z,20.92
2017-09-21T15:46:05.199Z,20.9
2017-09-21T15:47:22.696Z,20.87
2017-09-21T15:48:39.284Z,20.85
2017-09-21T15:49:56.009Z,20.82
2017-09-21T15:51:13.145Z,20.81
2017-09-21T15:52:50.964Z,20.81
2017-09-21T15:54:06.595Z,20.8
2017-09-21T15:55:25.302Z,20.81
2017-09-21T15:56:43.404Z,20.83
2017-09-21T15:58:00.274Z,20.85
2017-09-21T15:59:18.224Z,20.89
2017-09-21T16:00:35.309Z,20.91
2017-09-21T16:01:50.431Z,20.92
2017-09-21T16:03:06.664Z,20.93
2017-09-21T16:04:22.764Z,20.94
2017-09-21T16:07:58.562Z,20.93
2017-09-21T16:09:14.525Z,20.9
2017-09-21T16:10:31.470Z,20.85
2017-09-21T16:11:48.378Z,20.82
2017-09-21T16:13:05.658Z,20.78
2017-09-21T16:14:23.077Z,20.74
2017-09-21T16:15:39.197Z,20.72
2017-09-21T16:16:55.069Z,20.71
2017-09-21T16:18:10.805Z,20.7